createdAt,value
2022-09-03T00:01:05.000Z,44.18
2022-09-03T00:06:00.000Z,44.51
2022-09-03T00:10:55.000Z,44.84
2022-09-03T00:15:49.000Z,44.55
2022-09-03T00:20:44.000Z,45.05
2022-09-03T00:25:38.000Z,45.73
2022-09-03T00:30:31.000Z,45.03
2022-09-03T00:35:25.000Z,45.28
2022-09-03T00:40:20.000Z,45.89
2022-09-03T00:45:13.000Z,45.95
2022-09-03T00:50:08.000Z,46.50
2022-09-03T00:55:02.000Z,46.45
2022-09-03T00:59:55.000Z,47.00
2022-09-03T01:04:50.000Z,47.44
2022-09-03T01:09:44.000Z,47.71
2022-09-03T01:14:39.000Z,48.00
2022-09-03T01:19:32.000Z,47.92
2022-09-03T01:24:27.000Z,48.29
2022-09-03T01:29:22.000Z,48.02
2022-09-03T01:34:17.000Z,47.29
2022-09-03T01:39:11.000Z,48.24
2022-09-03T01:44:05.000Z,48.65
2022-09-03T01:49:00.000Z,48.70
2022-09-03T01:53:54.000Z,48.23
2022-09-03T01:58:49.000Z,49.02
2022-09-03T02:03:44.000Z,48.53
2022-09-03T02:08:39.000Z,48.68
2022-09-03T02:13:33.000Z,50.27
2022-09-03T02:18:28.000Z,51.08
2022-09-03T02:23:23.000Z,52.25
2022-09-03T02:28:16.000Z,52.93
2022-09-03T02:33:10.000Z,53.85
2022-09-03T02:38:04.000Z,54.47
2022-09-03T02:42:59.000Z,53.39
2022-09-03T02:47:52.000Z,53.66
2022-09-03T02:52:47.000Z,53.90
2022-09-03T02:57:41.000Z,54.32
2022-09-03T03:02:36.000Z,54.44
2022-09-03T03:07:30.000Z,54.35
2022-09-03T03:12:25.000Z,52.50
2022-09-03T03:17:19.000Z,52.65
2022-09-03T03:22:14.000Z,52.46
2022-09-03T03:27:09.000Z,53.12
2022-09-03T03:32:03.000Z,53.25
2022-09-03T03:36:58.000Z,52.59
2022-09-03T03:41:52.000Z,52.44
2022-09-03T03:46:46.000Z,53.36
2022-09-03T03:51:41.000Z,52.43
2022-09-03T03:56:35.000Z,53.05
2022-09-03T04:01:29.000Z,54.39
2022-09-03T04:06:23.000Z,54.33
2022-09-03T04:11:18.000Z,54.91
2022-09-03T04:16:12.000Z,54.74
2022-09-03T04:21:06.000Z,54.91
2022-09-03T04:26:01.000Z,54.86
2022-09-03T04:30:55.000Z,54.42
2022-09-03T04:35:50.000Z,55.03
2022-09-03T04:40:45.000Z,56.84
2022-09-03T04:45:40.000Z,57.51
2022-09-03T04:50:34.000Z,57.31
2022-09-03T04:55:29.000Z,58.78
2022-09-03T05:00:24.000Z,58.30
2022-09-03T05:05:18.000Z,58.44
2022-09-03T05:10:12.000Z,57.68
2022-09-03T05:15:07.000Z,56.87
2022-09-03T05:20:01.000Z,57.58
2022-09-03T05:24:56.000Z,58.19
2022-09-03T05:29:51.000Z,56.60
2022-09-03T05:34:45.000Z,56.19
2022-09-03T05:39:40.000Z,55.37
2022-09-03T05:44:35.000Z,55.83
2022-09-03T05:49:30.000Z,55.92
2022-09-03T05:54:25.000Z,55.37
2022-09-03T05:59:19.000Z,55.29
2022-09-03T06:04:13.000Z,54.64
2022-09-03T06:09:08.000Z,55.59
2022-09-03T06:14:01.000Z,54.26
2022-09-03T06:18:56.000Z,55.48
2022-09-03T06:23:51.000Z,55.27
2022-09-03T06:28:46.000Z,56.34
2022-09-03T06:33:40.000Z,58.61
2022-09-03T06:43:29.000Z,59.08
2022-09-03T06:48:24.000Z,59.06
2022-09-03T06:58:12.000Z,57.20
2022-09-03T07:03:07.000Z,58.50
2022-09-03T07:08:01.000Z,58.80
2022-09-03T07:12:56.000Z,58.83
2022-09-03T07:17:50.000Z,60.35
2022-09-03T07:22:45.000Z,61.81
2022-09-03T07:27:40.000Z,61.16
2022-09-03T07:32:35.000Z,60.58
2022-09-03T07:37:29.000Z,60.05
2022-09-03T07:42:24.000Z,59.34
2022-09-03T07:47:19.000Z,58.36
2022-09-03T07:52:14.000Z,58.67
2022-09-03T07:57:07.000Z,58.34
2022-09-03T08:02:01.000Z,55.92
2022-09-03T08:06:56.000Z,55.14
2022-09-03T08:11:51.000Z,52.02
2022-09-03T08:16:46.000Z,53.68
2022-09-03T08:21:40.000Z,54.38
2022-09-03T08:26:34.000Z,55.12
2022-09-03T08:31:29.000Z,57.75
2022-09-03T08:36:23.000Z,57.36
2022-09-03T08:41:17.000Z,57.84
2022-09-03T08:46:11.000Z,59.50
2022-09-03T08:51:05.000Z,62.06
2022-09-03T08:56:00.000Z,62.79
2022-09-03T09:00:54.000Z,63.05
2022-09-03T09:05:49.000Z,70.15
2022-09-03T09:10:43.000Z,71.87
2022-09-03T09:15:38.000Z,74.45
2022-09-03T09:20:32.000Z,75.85
2022-09-03T09:25:27.000Z,77.83
2022-09-03T09:30:21.000Z,77.97
2022-09-03T09:35:15.000Z,80.57
2022-09-03T09:40:13.000Z,81.78
2022-09-03T09:45:03.000Z,80.84
2022-09-03T09:49:57.000Z,78.70
2022-09-03T09:54:52.000Z,77.16
2022-09-03T09:59:47.000Z,76.58
2022-09-03T10:04:42.000Z,79.29
2022-09-03T10:09:36.000Z,84.38
2022-09-03T10:14:30.000Z,82.01
2022-09-03T10:19:25.000Z,82.15
2022-09-03T10:24:19.000Z,79.13
2022-09-03T10:29:14.000Z,76.27
2022-09-03T10:34:09.000Z,72.92
2022-09-03T10:39:04.000Z,73.06
2022-09-03T10:43:58.000Z,68.62
2022-09-03T10:48:53.000Z,68.57
2022-09-03T10:53:48.000Z,70.77
2022-09-03T10:58:42.000Z,70.02
2022-09-03T11:03:37.000Z,67.24
2022-09-03T11:08:32.000Z,68.02
2022-09-03T11:13:26.000Z,64.64
2022-09-03T11:18:21.000Z,60.91
2022-09-03T11:23:16.000Z,61.02
2022-09-03T11:28:11.000Z,61.78
2022-09-03T11:33:04.000Z,61.71
2022-09-03T11:37:59.000Z,58.88
2022-09-03T11:42:54.000Z,59.13
2022-09-03T11:47:49.000Z,60.23
2022-09-03T11:57:39.000Z,47.12
2022-09-03T12:02:34.000Z,40.04
2022-09-03T12:07:31.000Z,37.52
2022-09-03T12:12:27.000Z,36.97
2022-09-03T12:17:22.000Z,36.47
2022-09-03T12:22:18.000Z,37.09
2022-09-03T12:27:13.000Z,38.11
2022-09-03T12:32:07.000Z,41.89
2022-09-03T12:37:01.000Z,39.49
2022-09-03T12:41:55.000Z,38.15
2022-09-03T12:46:50.000Z,43.38
2022-09-03T12:51:43.000Z,48.15
2022-09-03T12:56:36.000Z,48.44
2022-09-03T13:01:29.000Z,47.51
2022-09-03T13:06:24.000Z,48.85
2022-09-03T13:11:18.000Z,49.59
2022-09-03T13:16:10.000Z,51.39
2022-09-03T13:21:04.000Z,50.60
2022-09-03T13:26:01.000Z,51.36
2022-09-03T13:30:51.000Z,56.90
2022-09-03T13:35:45.000Z,53.41
2022-09-03T13:40:40.000Z,37.60
2022-09-03T13:45:37.000Z,42.13
2022-09-03T13:50:32.000Z,45.58
2022-09-03T13:55:26.000Z,38.43
2022-09-03T14:00:22.000Z,37.72
2022-09-03T14:05:18.000Z,35.00
2022-09-03T14:10:13.000Z,36.38
2022-09-03T14:15:07.000Z,50.68
2022-09-03T14:20:00.000Z,52.65
2022-09-03T14:24:53.000Z,47.03
2022-09-03T14:29:48.000Z,50.21
2022-09-03T14:34:42.000Z,49.11
2022-09-03T14:39:36.000Z,53.79
2022-09-03T14:44:32.000Z,56.65
2022-09-03T14:54:18.000Z,41.36
2022-09-03T14:59:14.000Z,40.43
2022-09-03T15:04:09.000Z,51.58
2022-09-03T15:09:03.000Z,57.49
2022-09-03T15:13:56.000Z,59.70
2022-09-03T15:18:49.000Z,61.68
2022-09-03T15:23:43.000Z,63.28
2022-09-03T15:28:37.000Z,66.89
2022-09-03T15:33:31.000Z,68.17
2022-09-03T15:38:25.000Z,70.19
2022-09-03T15:43:19.000Z,72.64
2022-09-03T15:48:13.000Z,83.10
2022-09-03T15:53:08.000Z,100.00
2022-09-03T16:02:56.000Z,100.00
2022-09-03T16:07:50.000Z,100.00
2022-09-03T16:12:44.000Z,100.00
2022-09-03T16:17:38.000Z,100.00
2022-09-03T16:22:32.000Z,100.00
2022-09-03T16:27:27.000Z,100.00
2022-09-03T16:32:21.000Z,100.00
2022-09-03T16:37:15.000Z,100.00
2022-09-03T16:42:10.000Z,100.00
2022-09-03T16:47:05.000Z,100.00
2022-09-03T16:51:59.000Z,100.00
2022-09-03T16:56:54.000Z,100.00
2022-09-03T17:01:49.000Z,100.00
2022-09-03T17:06:43.000Z,100.00
2022-09-03T17:16:32.000Z,100.00
2022-09-03T17:21:27.000Z,100.00
2022-09-03T17:46:03.000Z,100.00
2022-09-03T17:50:57.000Z,100.00
2022-09-03T17:55:51.000Z,100.00
2022-09-03T18:00:46.000Z,100.00
2022-09-03T18:05:40.000Z,100.00
2022-09-03T18:10:35.000Z,100.00
2022-09-03T18:15:30.000Z,100.00
2022-09-03T18:20:24.000Z,100.00
2022-09-03T18:25:19.000Z,100.00
2022-09-03T18:30:13.000Z,100.00
2022-09-03T18:35:08.000Z,100.00
2022-09-03T18:40:02.000Z,100.00
2022-09-03T18:44:57.000Z,100.00
2022-09-03T18:49:52.000Z,100.00
2022-09-03T18:54:46.000Z,100.00
2022-09-03T18:59:41.000Z,100.00
2022-09-03T19:04:36.000Z,100.00
2022-09-03T19:09:30.000Z,100.00
2022-09-03T19:14:24.000Z,100.00
2022-09-03T19:19:18.000Z,100.00
2022-09-03T19:24:13.000Z,100.00
2022-09-03T19:29:08.000Z,100.00
2022-09-03T19:34:02.000Z,100.00
2022-09-03T19:38:55.000Z,100.00
2022-09-03T19:43:50.000Z,100.00
2022-09-03T19:48:44.000Z,100.00
2022-09-03T19:53:39.000Z,100.00
2022-09-03T19:58:33.000Z,100.00
2022-09-03T20:03:28.000Z,100.00
2022-09-03T20:08:22.000Z,100.00
2022-09-03T20:13:17.000Z,100.00
2022-09-03T20:18:11.000Z,100.00
2022-09-03T20:23:05.000Z,100.00
2022-09-03T20:28:00.000Z,100.00
2022-09-03T20:32:55.000Z,100.00
2022-09-03T20:37:48.000Z,100.00
2022-09-03T20:42:43.000Z,100.00
2022-09-03T20:47:36.000Z,100.00
2022-09-03T20:52:31.000Z,100.00
2022-09-03T20:57:26.000Z,100.00
2022-09-03T21:02:21.000Z,100.00
2022-09-03T21:07:15.000Z,100.00
2022-09-03T21:12:10.000Z,100.00
2022-09-03T21:17:05.000Z,100.00
2022-09-03T21:21:59.000Z,100.00
2022-09-03T21:26:54.000Z,100.00
2022-09-03T21:31:49.000Z,100.00
2022-09-03T21:36:44.000Z,100.00
2022-09-03T21:41:39.000Z,100.00
2022-09-03T21:51:28.000Z,100.00
2022-09-03T21:56:23.000Z,100.00
2022-09-03T22:01:16.000Z,100.00
2022-09-03T22:06:09.000Z,100.00
2022-09-03T22:11:01.000Z,100.00
2022-09-03T22:15:56.000Z,100.00
2022-09-03T22:20:51.000Z,100.00
2022-09-03T22:25:45.000Z,100.00
2022-09-03T22:30:40.000Z,100.00
2022-09-03T22:35:35.000Z,100.00
2022-09-03T22:45:24.000Z,100.00
2022-09-03T22:50:19.000Z,100.00
2022-09-03T22:55:13.000Z,100.00
2022-09-03T23:00:08.000Z,100.00
2022-09-03T23:05:03.000Z,100.00
2022-09-03T23:09:58.000Z,100.00
2022-09-03T23:14:52.000Z,100.00
2022-09-03T23:24:42.000Z,100.00
2022-09-03T23:29:36.000Z,100.00
2022-09-03T23:34:31.000Z,100.00
2022-09-03T23:39:26.000Z,100.00
2022-09-03T23:44:19.000Z,100.00
2022-09-03T23:49:13.000Z,100.00
2022-09-03T23:54:08.000Z,100.00
2022-09-03T23:59:03.000Z,100.00
